• Join FlightAware (Why Join?)
  • Login
  • US Flag 
02:10AM EDT


 

Airport Tracker/Info


-or-


 

Live Flight TrackerFlight Track Log ✈ ASQ5740 ✈ 27-Sep-2013 ✈ KIAD - KGSP

Flight Track Log - Related Links

Times and Time Zones

All times are in EDT time to prevent confusion due to time zone crossing. See the ASQ5740 flight status page for this flight to view local times or setup timezone preferences in your user account.

Time Position Orientation Groundspeed Altitude Reporting Facility
EDT Latitude Longitude Course Direction KTS MPH feet Rate Location/Type
02:14PM 38.9333 -77.5333 233° Southwest 313 360 2,100  Level Potomac TRACON
02:15PM 38.8500 -77.5333 180° South 266 306 4,800 2,760 Climbing Potomac TRACON
02:16PM 38.7833 -77.5500 191° South 278 320 7,700 2,580 Climbing Potomac TRACON
02:17PM 38.6200 -77.8730 226° Southwest  Level Estimated
02:17PM 38.7000 -77.5500 180° South 292 336 10,100  Level Potomac TRACON
02:18PM 38.5379 -77.9757 226° Southwest  Level Estimated
02:18PM 38.6167 -77.5500 180° South 324 373 11,800  Level Potomac TRACON
02:19PM 38.4557 -78.0782 233° Southwest  Level Estimated
02:19PM 38.5200 -77.5606 185° South 332 382 13,700  Level Washington Center
02:20PM 38.4258 -77.5689 184° South 337 388 15,500 1,560 Climbing Washington Center
02:21PM 38.3519 -77.6383 216° Southwest 331 381 16,900 1,260 Climbing Washington Center
02:22PM 38.2856 -77.7369 229° Southwest 343 395 18,100 1,320 Climbing Washington Center
02:23PM 38.2211 -77.8383 231° Southwest 353 406 19,600 1,320 Climbing Washington Center
02:24PM 38.1544 -77.9392 230° Southwest 371 427 20,800 1,140 Climbing Washington Center
02:25PM 38.0878 -78.0428 231° Southwest 378 435 22,000 960 Climbing Washington Center
02:26PM 38.0103 -78.1561 229° Southwest 383 441 22,800 480 Climbing Washington Center
02:27PM 37.9411 -78.2644 231° Southwest 393 452 23,000 60 Climbing Washington Center
02:28PM 37.8678 -78.3697 229° Southwest 398 458 23,000  Level Washington Center
02:29PM 37.7967 -78.4722 229° Southwest 398 458 23,000  Level Washington Center
02:30PM 37.7253 -78.5744 229° Southwest 398 458 23,000  Level Washington Center
02:31PM 37.6583 -78.6661 227° Southwest 398 458 23,000  Level Washington Center
02:32PM 37.5867 -78.7708 229° Southwest 398 458 23,000  Level Washington Center
02:33PM 37.5153 -78.8700 228° Southwest 398 458 23,000 180 Level Washington Center
02:34PM 37.4414 -78.9739 228° Southwest 398 458 23,400 540 Climbing Washington Center
02:35PM 37.3633 -79.0803 227° Southwest 409 471 24,100 840 Climbing Washington Center
02:36PM 37.2764 -79.2017 228° Southwest 422 486 25,100 840 Climbing Washington Center
02:37PM 37.1997 -79.3153 230° Southwest 430 495 25,800 720 Climbing Washington Center
02:38PM 37.1231 -79.4289 230° Southwest 430 495 26,600 780 Climbing Washington Center
02:39PM 37.0444 -79.5447 230° Southwest 430 495 27,400 660 Climbing Washington Center
02:40PM 36.9675 -79.6578 230° Southwest 435 501 28,000 240 Climbing Washington Center
02:41PM 36.8992 -79.7606 230° Southwest 440 506 28,000  Level Washington Center
02:43PM 36.7403 -79.9900 229° Southwest 458 527 28,000  Level Atlanta Center
02:44PM 36.6586 -80.1081 229° Southwest 453 521 28,000  Level Atlanta Center
02:45PM 36.5789 -80.2256 230° Southwest 448 516 28,000 -300 Level Atlanta Center
02:46PM 36.4808 -80.2975 211° Southwest 448 516 27,500 -780 Descending Atlanta Center
02:47PM 36.3614 -80.3417 197° South 448 516 26,500 -1,020 Descending Atlanta Center
02:48PM 36.2417 -80.3806 195° South 448 516 25,500 -960 Descending Atlanta Center
02:49PM 36.1322 -80.4192 196° South 433 498 24,600 -1,080 Descending Atlanta Center
02:50PM 36.0167 -80.4600 196° South 407 468 23,400 -1,080 Descending Atlanta Center
02:51PM 35.9236 -80.4950 197° South 396 456 22,500 -1,020 Descending Atlanta Center
02:52PM 35.8203 -80.5303 195° South 388 447 21,400 -1,260 Descending Atlanta Center
02:53PM 35.7325 -80.5928 210° Southwest 371 427 20,000 -720 Descending Atlanta Center
02:54PM 35.6769 -80.7000 237° Southwest 371 427 20,000 -540 Level Atlanta Center
02:55PM 35.6133 -80.8150 236° Southwest 371 427 19,000 -900 Descending Atlanta Center
02:55PM 35.5997 -80.8539 247° West 374 430 18,900 -1,200 Descending Atlanta Center
02:56PM 35.5600 -80.9269 236° Southwest 378 435 17,800 -1,920 Descending Atlanta Center
02:56PM 35.5439 -80.9581 238° Southwest 367 422 17,000 -2,340 Descending Atlanta Center
02:57PM 35.5061 -81.0258 236° Southwest 367 422 15,500 -1,920 Descending Atlanta Center
02:57PM 35.4922 -81.0594 243° Southwest 346 398 15,100 -1,440 Descending Atlanta Center
02:58PM 35.4564 -81.1269 237° Southwest 361 415 14,100 -1,560 Descending Atlanta Center
02:58PM 35.4383 -81.1633 239° Southwest 337 388 13,500 -1,140 Descending Atlanta Center
02:59PM 35.4042 -81.2206 234° Southwest 345 397 13,000 -540 Descending Atlanta Center
02:59PM 35.3883 -81.2569 242° Southwest 332 382 13,000  Level Atlanta Center
03:00PM 35.3583 -81.3089 235° Southwest 345 397 13,000 -600 Level Atlanta Center
03:00PM 35.3383 -81.3553 242° Southwest 339 390 12,400 -1,440 Descending Atlanta Center
03:01PM 35.3122 -81.4019 236° Southwest 339 390 11,600 -1,440 Descending Atlanta Center
03:02PM 35.2683 -81.4872 238° Southwest 322 371 10,100 -840 Descending Atlanta Center
03:03PM 35.2200 -81.5728 235° Southwest 307 353 10,000 -60 Descending Atlanta Center
03:04PM 35.1672 -81.6481 229° Southwest 302 348 10,000  Level Atlanta Center
03:05PM 35.1061 -81.7361 230° Southwest 302 348 10,000 -600 Level Atlanta Center
03:06PM 35.0514 -81.8161 230° Southwest 307 353 8,900 -1,320 Descending Atlanta Center
03:07PM 34.9983 -81.8886 228° Southwest 302 348 7,400 -1,560 Descending Atlanta Center
03:08PM 34.9475 -81.9608 229° Southwest 297 342 5,800 -1,500 Descending Atlanta Center
03:09PM 34.8983 -82.0256 227° Southwest 292 336 4,500 -1,140 Descending Atlanta Center
03:10PM 34.8517 -82.0975 232° Southwest 286 329 3,600 -780 Descending Atlanta Center
03:11PM 34.8133 -82.1767 239° Southwest 280 322 3,000 -540 Descending Atlanta Center
03:12PM 34.8183 -82.2372 276° West 226 260 2,600 -300 Descending Atlanta Center
03:13PM 34.8192 -82.3056 271° West 226 260 2,400 -240 Descending Atlanta Center